createdAt,value
2022-08-24T00:03:12.126Z,124.50
2022-08-24T00:13:16.944Z,124.60
2022-08-24T00:23:22.203Z,126.30
2022-08-24T00:33:26.587Z,125.60
2022-08-24T00:43:33.161Z,122.00
2022-08-24T00:53:41.611Z,120.17
2022-08-24T01:03:47.518Z,127.70
2022-08-24T01:13:53.728Z,127.53
2022-08-24T01:24:01.907Z,126.93
2022-08-24T01:34:06.299Z,128.07
2022-08-24T01:44:12.175Z,127.80
2022-08-24T01:54:18.351Z,125.47
2022-08-24T02:04:23.957Z,133.00
2022-08-24T02:14:30.671Z,126.93
2022-08-24T02:24:38.722Z,120.73
2022-08-24T02:34:44.185Z,129.77
2022-08-24T02:44:50.559Z,130.80
2022-08-24T02:54:57.646Z,130.77
2022-08-24T03:05:03.625Z,127.77
2022-08-24T03:15:11.740Z,129.30
2022-08-24T03:25:20.678Z,127.73
2022-08-24T03:35:24.917Z,127.03
2022-08-24T03:45:30.894Z,127.47
2022-08-24T03:55:35.130Z,127.97
2022-08-24T04:05:42.432Z,131.93
2022-08-24T04:15:46.499Z,137.93
2022-08-24T04:25:51.889Z,128.63
2022-08-24T04:35:55.968Z,131.73
2022-08-24T04:46:08.104Z,126.77
2022-08-24T04:56:15.902Z,129.20
2022-08-24T05:06:26.048Z,127.87
2022-08-24T05:16:30.716Z,126.73
2022-08-24T05:26:38.164Z,134.57
2022-08-24T05:36:43.470Z,135.43
2022-08-24T05:47:03.016Z,128.97
2022-08-24T05:57:07.993Z,126.70
2022-08-24T06:07:27.120Z,124.00
2022-08-24T06:17:34.037Z,131.73
2022-08-24T06:27:39.318Z,134.43
2022-08-24T06:37:43.473Z,131.80
2022-08-24T06:47:49.728Z,129.00
2022-08-24T06:57:54.873Z,135.47
2022-08-24T07:08:00.577Z,127.43
2022-08-24T07:18:10.007Z,122.40
2022-08-24T07:28:18.754Z,125.80
2022-08-24T07:38:35.871Z,126.87
2022-08-24T07:48:41.629Z,127.43
2022-08-24T07:58:45.534Z,120.60
2022-08-24T08:08:50.486Z,126.40
2022-08-24T08:19:09.220Z,128.27
2022-08-24T08:29:17.043Z,126.63
2022-08-24T08:39:23.566Z,129.63
2022-08-24T08:50:01.601Z,121.83
2022-08-24T09:00:15.492Z,130.67
2022-08-24T09:10:55.966Z,123.83
2022-08-24T09:21:16.484Z,127.30
2022-08-24T09:31:59.109Z,132.50
2022-08-24T09:43:04.275Z,130.23
2022-08-24T09:53:55.931Z,131.80
2022-08-24T10:04:27.109Z,136.90
2022-08-24T10:14:53.778Z,135.18
2022-08-24T10:25:32.888Z,135.95
2022-08-24T10:35:53.869Z,136.57
2022-08-24T10:46:37.941Z,133.98
2022-08-24T10:56:55.121Z,158.55
2022-08-24T11:07:11.046Z,152.77
2022-08-24T11:17:22.033Z,153.00
2022-08-24T11:27:32.254Z,147.20
2022-08-24T11:37:40.626Z,148.13
2022-08-24T11:48:00.055Z,143.32
2022-08-24T11:58:12.935Z,143.82
2022-08-24T12:08:24.791Z,145.65
2022-08-24T12:18:39.865Z,129.43
2022-08-24T12:28:54.217Z,147.95
2022-08-24T12:39:11.299Z,139.23
2022-08-24T12:49:25.259Z,134.02
2022-08-24T12:59:32.961Z,144.30
2022-08-24T13:09:41.165Z,151.48
2022-08-24T13:20:39.367Z,140.48
2022-08-24T13:31:22.122Z,136.05
2022-08-24T13:41:55.266Z,140.18
2022-08-24T13:52:16.758Z,148.73
2022-08-24T14:02:38.290Z,143.10
2022-08-24T14:12:56.460Z,137.13
2022-08-24T14:23:08.394Z,138.85
2022-08-24T14:33:26.671Z,150.45
2022-08-24T14:43:55.364Z,145.18
2022-08-24T14:54:05.443Z,138.48
2022-08-24T15:04:38.448Z,133.82
2022-08-24T15:14:53.074Z,137.38
2022-08-24T15:25:12.369Z,142.95
2022-08-24T15:35:27.804Z,127.78
2022-08-24T15:45:33.279Z,138.60
2022-08-24T15:55:40.748Z,134.15
2022-08-24T16:05:49.447Z,134.40
2022-08-24T16:16:05.200Z,138.57
2022-08-24T16:26:29.775Z,129.32
2022-08-24T16:36:34.876Z,127.32
2022-08-24T16:46:40.797Z,123.00
2022-08-24T16:56:44.774Z,117.30
2022-08-24T17:06:50.848Z,118.20
2022-08-24T17:16:55.066Z,111.07
2022-08-24T17:27:02.053Z,122.53
2022-08-24T17:37:05.908Z,124.63
2022-08-24T17:47:10.962Z,122.43
2022-08-24T17:57:15.833Z,112.53
2022-08-24T18:07:42.342Z,123.70
2022-08-24T18:17:49.676Z,109.10
2022-08-24T18:27:58.616Z,107.47
2022-08-24T18:38:02.438Z,111.63
2022-08-24T18:48:07.855Z,109.47
2022-08-24T18:58:11.507Z,112.90
2022-08-24T19:08:16.916Z,116.57
2022-08-24T19:18:23.817Z,117.00
2022-08-24T19:28:30.068Z,109.80
2022-08-24T19:38:33.827Z,113.73
2022-08-24T19:48:40.532Z,123.17
2022-08-24T19:58:49.220Z,120.83
2022-08-24T20:08:54.718Z,121.60
2022-08-24T20:19:00.357Z,139.23
2022-08-24T20:29:06.023Z,104.53
2022-08-24T20:39:13.317Z,109.30
2022-08-24T20:49:21.800Z,109.53
2022-08-24T20:59:26.032Z,107.90
2022-08-24T21:09:31.151Z,111.40
2022-08-24T21:19:35.056Z,114.57
2022-08-24T21:29:40.424Z,109.47
2022-08-24T21:39:44.978Z,109.03
2022-08-24T21:49:50.156Z,103.93
2022-08-24T21:59:53.986Z,107.13
2022-08-24T22:09:59.855Z,106.23
2022-08-24T22:20:04.126Z,107.47
2022-08-24T22:30:12.299Z,101.63
2022-08-24T22:40:16.277Z,103.43
2022-08-24T22:50:24.146Z,103.33
2022-08-24T23:00:27.898Z,103.77
2022-08-24T23:10:33.320Z,100.70
2022-08-24T23:20:37.351Z,100.87
2022-08-24T23:30:42.531Z,100.50
2022-08-24T23:40:46.325Z,102.63
2022-08-24T23:50:51.630Z,99.93
